Time;durP1;ratioP1;P1;durP2;ratioP2;P2;SDS_P1;SDS_P2;PMS_P1;PMS_P2;Temp;Humidity;BMP_temperature;BMP_pressure;BME280_temperature;BME280_humidity;BME280_pressure;Samples;Min_cycle;Max_cycle;Signal;HPM_P1;HPM_P2
2023/06/14 00:00:23;;;;;;;0.00;0.00;;;;;;;;;;1728218;28;20285;-59
2023/06/14 00:01:17;;;;;;;0.00;0.00;;;;;;;;;;1732046;28;20707;-60
2023/06/14 00:02:08;;;;;;;0.00;0.00;;;;;;;;;;1729723;28;20761;-60
2023/06/14 00:03:00;;;;;;;0.00;0.00;;;;;;;;;;1729586;28;20209;-60
2023/06/14 00:03:52;;;;;;;0.00;0.00;;;;;;;;;;1730313;28;20237;-60
2023/06/14 00:04:44;;;;;;;0.00;0.00;;;;;;;;;;1728954;28;20203;-60
2023/06/14 00:05:40;;;;;;;0.00;0.00;;;;;;;;;;1728431;28;20301;-60
2023/06/14 00:06:33;;;;;;;0.00;0.00;;;;;;;;;;1729207;28;20720;-60
2023/06/14 00:07:34;;;;;;;0.00;0.00;;;;;;;;;;1731400;28;20261;-59
2023/06/14 00:08:26;;;;;;;0.00;0.00;;;;;;;;;;1728666;28;20197;-59
2023/06/14 00:09:17;;;;;;;0.00;0.00;;;;;;;;;;1730796;28;20315;-60
2023/06/14 00:10:09;;;;;;;0.00;0.00;;;;;;;;;;1726153;28;20343;-60
2023/06/14 00:11:00;;;;;;;0.00;0.00;;;;;;;;;;1730960;28;20273;-60
2023/06/14 00:11:52;;;;;;;0.00;0.00;;;;;;;;;;1728940;28;20537;-59
2023/06/14 00:12:43;;;;;;;0.00;0.00;;;;;;;;;;1731261;28;20265;-59
2023/06/14 00:13:35;;;;;;;0.00;0.00;;;;;;;;;;1731083;28;20196;-60
2023/06/14 00:14:26;;;;;;;0.00;0.00;;;;;;;;;;1731416;28;20743;-60
2023/06/14 00:15:18;;;;;;;0.00;0.00;;;;;;;;;;1730656;28;20693;-60
2023/06/14 00:16:09;;;;;;;0.00;0.00;;;;;;;;;;1730441;28;20220;-60
2023/06/14 00:17:03;;;;;;;0.00;0.00;;;;;;;;;;1728113;28;20201;-60
2023/06/14 00:17:54;;;;;;;0.00;0.00;;;;;;;;;;1729678;28;20216;-60
2023/06/14 00:18:46;;;;;;;0.00;0.00;;;;;;;;;;1727963;28;20632;-60
2023/06/14 00:19:38;;;;;;;0.00;0.00;;;;;;;;;;1729053;28;20239;-60
2023/06/14 00:20:30;;;;;;;0.00;0.00;;;;;;;;;;1727453;28;20195;-60
2023/06/14 00:21:21;;;;;;;0.00;0.00;;;;;;;;;;1728909;28;20622;-58
2023/06/14 00:22:13;;;;;;;0.00;0.00;;;;;;;;;;1731600;28;20622;-60
2023/06/14 00:23:04;;;;;;;0.10;0.10;;;;;;;;;;1729017;28;20660;-60
2023/06/14 00:23:56;;;;;;;0.00;0.00;;;;;;;;;;1729595;28;20220;-59
2023/06/14 00:24:47;;;;;;;0.00;0.00;;;;;;;;;;1728244;28;20659;-59
2023/06/14 00:25:39;;;;;;;0.00;0.00;;;;;;;;;;1727464;28;20235;-59
2023/06/14 00:26:30;;;;;;;0.00;0.00;;;;;;;;;;1727903;28;20241;-59
2023/06/14 00:27:22;;;;;;;0.00;0.00;;;;;;;;;;1730937;28;20286;-57
2023/06/14 00:28:14;;;;;;;0.00;0.00;;;;;;;;;;1727911;28;20262;-59
2023/06/14 00:29:06;;;;;;;0.00;0.00;;;;;;;;;;1730278;28;20201;-59
2023/06/14 00:29:58;;;;;;;0.00;0.00;;;;;;;;;;1730996;28;20251;-59
2023/06/14 00:30:50;;;;;;;0.00;0.00;;;;;;;;;;1730695;28;20228;-59
2023/06/14 00:31:41;;;;;;;0.00;0.00;;;;;;;;;;1730690;28;20208;-59
2023/06/14 00:32:34;;;;;;;0.00;0.00;;;;;;;;;;1731437;28;20679;-59
2023/06/14 00:33:25;;;;;;;0.00;0.00;;;;;;;;;;1730551;28;20250;-59
2023/06/14 00:34:17;;;;;;;0.00;0.00;;;;;;;;;;1732143;28;20315;-59
2023/06/14 00:35:08;;;;;;;0.00;0.00;;;;;;;;;;1730747;28;21008;-59
2023/06/14 00:35:59;;;;;;;0.00;0.00;;;;;;;;;;1730674;28;20339;-59
2023/06/14 00:36:51;;;;;;;0.00;0.00;;;;;;;;;;1728832;28;20884;-59
2023/06/14 00:37:42;;;;;;;0.00;0.00;;;;;;;;;;1731013;28;20223;-59
2023/06/14 00:38:34;;;;;;;0.00;0.00;;;;;;;;;;1725892;28;20291;-59
2023/06/14 00:39:25;;;;;;;0.00;0.00;;;;;;;;;;1724922;28;20709;-58
2023/06/14 00:40:18;;;;;;;0.00;0.00;;;;;;;;;;1730609;28;20200;-59
2023/06/14 00:41:09;;;;;;;0.00;0.00;;;;;;;;;;1731615;28;20679;-60
2023/06/14 00:42:01;;;;;;;0.00;0.00;;;;;;;;;;1730463;28;20204;-60
2023/06/14 00:42:52;;;;;;;0.00;0.00;;;;;;;;;;1730095;28;20265;-60
2023/06/14 00:43:44;;;;;;;0.00;0.00;;;;;;;;;;1727506;28;20738;-59
2023/06/14 00:44:35;;;;;;;0.00;0.00;;;;;;;;;;1729640;28;20200;-59
2023/06/14 00:45:27;;;;;;;0.00;0.00;;;;;;;;;;1727273;28;20201;-59
2023/06/14 00:46:19;;;;;;;0.00;0.00;;;;;;;;;;1730132;28;20200;-59
2023/06/14 00:47:11;;;;;;;0.00;0.00;;;;;;;;;;1729362;28;20307;-60
2023/06/14 00:48:06;;;;;;;0.00;0.00;;;;;;;;;;1730404;28;20557;-59
2023/06/14 00:48:58;;;;;;;0.00;0.00;;;;;;;;;;1731365;28;20586;-60
2023/06/14 00:49:50;;;;;;;0.00;0.00;;;;;;;;;;1727758;28;20233;-60
2023/06/14 00:50:45;;;;;;;0.00;0.00;;;;;;;;;;1728790;28;20228;-60
2023/06/14 00:51:37;;;;;;;0.00;0.00;;;;;;;;;;1726235;28;20205;-60
2023/06/14 00:52:29;;;;;;;0.00;0.00;;;;;;;;;;1730980;28;20634;-60
2023/06/14 00:53:22;;;;;;;0.00;0.00;;;;;;;;;;1726649;28;20255;-60
2023/06/14 00:54:14;;;;;;;0.00;0.00;;;;;;;;;;1724864;28;20205;-60
2023/06/14 00:55:06;;;;;;;0.00;0.00;;;;;;;;;;1728046;28;20282;-60
2023/06/14 00:55:58;;;;;;;0.00;0.00;;;;;;;;;;1730480;28;20816;-60
2023/06/14 00:56:49;;;;;;;0.00;0.00;;;;;;;;;;1728270;28;20209;-60
2023/06/14 00:57:41;;;;;;;0.00;0.00;;;;;;;;;;1731106;28;20627;-60
2023/06/14 00:58:33;;;;;;;0.10;0.10;;;;;;;;;;1730343;28;21004;-60
2023/06/14 00:59:25;;;;;;;0.00;0.00;;;;;;;;;;1731026;28;20310;-57
2023/06/14 01:00:16;;;;;;;0.00;0.00;;;;;;;;;;1725932;28;20944;-59
2023/06/14 01:01:08;;;;;;;0.00;0.00;;;;;;;;;;1730316;28;20792;-59
2023/06/14 01:01:59;;;;;;;0.00;0.00;;;;;;;;;;1728749;28;20276;-60
2023/06/14 01:02:51;;;;;;;0.00;0.00;;;;;;;;;;1730578;28;20302;-60
2023/06/14 01:03:44;;;;;;;0.00;0.00;;;;;;;;;;1730825;28;20259;-59
2023/06/14 01:04:35;;;;;;;0.00;0.00;;;;;;;;;;1729357;28;20204;-60
2023/06/14 01:05:27;;;;;;;0.00;0.00;;;;;;;;;;1727180;28;20206;-59
2023/06/14 01:06:26;;;;;;;0.00;0.00;;;;;;;;;;1726359;28;20475;-59
2023/06/14 01:07:22;;;;;;;0.00;0.00;;;;;;;;;;1728939;28;20583;-59
2023/06/14 01:08:20;;;;;;;0.00;0.00;;;;;;;;;;1727253;28;20307;-60
2023/06/14 01:09:16;;;;;;;0.00;0.00;;;;;;;;;;1730550;28;20270;-59
2023/06/14 01:10:14;;;;;;;0.00;0.00;;;;;;;;;;1729033;28;20215;-60
2023/06/14 01:11:08;;;;;;;0.00;0.00;;;;;;;;;;1730191;28;20231;-60
2023/06/14 01:12:02;;;;;;;0.00;0.00;;;;;;;;;;1726192;28;20208;-60
2023/06/14 01:12:58;;;;;;;0.00;0.00;;;;;;;;;;1729265;28;20212;-60
2023/06/14 01:13:52;;;;;;;0.00;0.00;;;;;;;;;;1730031;28;20621;-60
2023/06/14 01:14:43;;;;;;;0.00;0.00;;;;;;;;;;1729095;28;20208;-60
2023/06/14 01:15:35;;;;;;;0.00;0.00;;;;;;;;;;1727580;28;20239;-60
2023/06/14 01:16:27;;;;;;;0.00;0.00;;;;;;;;;;1728421;28;20206;-61
2023/06/14 01:17:19;;;;;;;0.00;0.00;;;;;;;;;;1729114;28;20595;-58
2023/06/14 01:18:17;;;;;;;0.00;0.00;;;;;;;;;;1730695;28;20612;-60
2023/06/14 01:19:13;;;;;;;0.00;0.00;;;;;;;;;;1730713;28;20224;-60
2023/06/14 01:20:09;;;;;;;0.00;0.00;;;;;;;;;;1730299;28;20241;-60
2023/06/14 01:21:05;;;;;;;0.00;0.00;;;;;;;;;;1730603;28;20280;-61
2023/06/14 01:21:56;;;;;;;0.00;0.00;;;;;;;;;;1728595;28;20584;-60
2023/06/14 01:22:55;;;;;;;0.00;0.00;;;;;;;;;;1730907;28;20211;-60
2023/06/14 01:23:52;;;;;;;0.00;0.00;;;;;;;;;;1727595;28;20293;-60
2023/06/14 01:24:45;;;;;;;0.00;0.00;;;;;;;;;;1730060;28;20196;-61
2023/06/14 01:25:37;;;;;;;0.03;0.03;;;;;;;;;;1726133;28;20235;-60
2023/06/14 01:26:30;;;;;;;0.00;0.00;;;;;;;;;;1727561;28;20199;-59
2023/06/14 01:27:21;;;;;;;0.00;0.00;;;;;;;;;;1730292;28;20201;-59
2023/06/14 01:28:14;;;;;;;0.00;0.00;;;;;;;;;;1731296;28;20607;-59
2023/06/14 01:29:05;;;;;;;0.00;0.00;;;;;;;;;;1726262;28;20581;-59
2023/06/14 01:29:59;;;;;;;0.00;0.00;;;;;;;;;;1728869;28;20320;-61
2023/06/14 01:30:51;;;;;;;0.00;0.00;;;;;;;;;;1731071;28;20282;-60
2023/06/14 01:31:45;;;;;;;0.00;0.00;;;;;;;;;;1729306;28;20240;-60
2023/06/14 01:32:36;;;;;;;0.00;0.00;;;;;;;;;;1726170;28;20205;-60
2023/06/14 01:33:29;;;;;;;0.00;0.00;;;;;;;;;;1730390;28;20639;-59
2023/06/14 01:34:20;;;;;;;0.00;0.00;;;;;;;;;;1731381;28;20208;-60
2023/06/14 01:35:12;;;;;;;0.00;0.00;;;;;;;;;;1725773;28;20263;-60
2023/06/14 01:36:05;;;;;;;0.00;0.00;;;;;;;;;;1730525;28;20293;-60
2023/06/14 01:36:58;;;;;;;0.00;0.00;;;;;;;;;;1728609;28;20208;-60
2023/06/14 01:37:49;;;;;;;0.00;0.00;;;;;;;;;;1729532;28;20265;-60
2023/06/14 01:38:43;;;;;;;0.00;0.00;;;;;;;;;;1726570;28;20204;-60
2023/06/14 01:39:34;;;;;;;0.00;0.00;;;;;;;;;;1729876;28;20228;-60
2023/06/14 01:40:27;;;;;;;0.00;0.00;;;;;;;;;;1726367;28;20192;-58
2023/06/14 01:41:19;;;;;;;0.00;0.00;;;;;;;;;;1729392;28;20273;-60
2023/06/14 01:42:12;;;;;;;0.00;0.00;;;;;;;;;;1728384;28;20208;-60
2023/06/14 01:43:03;;;;;;;0.00;0.00;;;;;;;;;;1729163;28;20283;-60
2023/06/14 01:43:56;;;;;;;0.00;0.00;;;;;;;;;;1729052;28;20200;-60
2023/06/14 01:44:47;;;;;;;0.00;0.00;;;;;;;;;;1729390;28;20746;-60
2023/06/14 01:45:40;;;;;;;0.00;0.00;;;;;;;;;;1730246;28;20234;-60
2023/06/14 01:46:31;;;;;;;0.00;0.00;;;;;;;;;;1728905;28;20201;-60
2023/06/14 01:47:23;;;;;;;0.00;0.00;;;;;;;;;;1729562;28;20686;-60
2023/06/14 01:48:14;;;;;;;0.00;0.00;;;;;;;;;;1729217;28;20208;-60
2023/06/14 01:49:07;;;;;;;0.00;0.00;;;;;;;;;;1729794;28;20214;-60
2023/06/14 01:49:58;;;;;;;0.00;0.00;;;;;;;;;;1728204;28;20223;-60
2023/06/14 01:50:50;;;;;;;0.00;0.00;;;;;;;;;;1729315;28;20228;-60
2023/06/14 01:51:41;;;;;;;0.00;0.00;;;;;;;;;;1728470;28;20208;-60
2023/06/14 01:52:33;;;;;;;0.00;0.00;;;;;;;;;;1730659;28;20287;-60
2023/06/14 01:53:24;;;;;;;0.00;0.00;;;;;;;;;;1730573;28;20268;-60
2023/06/14 01:54:17;;;;;;;0.00;0.00;;;;;;;;;;1731465;28;20726;-60
2023/06/14 01:55:09;;;;;;;0.00;0.00;;;;;;;;;;1727073;28;20269;-60
2023/06/14 01:56:01;;;;;;;0.00;0.00;;;;;;;;;;1730765;28;20783;-60
2023/06/14 01:56:52;;;;;;;0.00;0.00;;;;;;;;;;1726626;28;20213;-60
2023/06/14 01:57:44;;;;;;;0.00;0.00;;;;;;;;;;1731272;28;20512;-60
2023/06/14 01:58:35;;;;;;;0.00;0.00;;;;;;;;;;1727540;28;20613;-60
2023/06/14 01:59:27;;;;;;;0.00;0.00;;;;;;;;;;1730643;28;20241;-58
2023/06/14 02:00:19;;;;;;;0.00;0.00;;;;;;;;;;1729214;28;20619;-60
2023/06/14 02:01:11;;;;;;;0.00;0.00;;;;;;;;;;1729971;28;20212;-60
2023/06/14 02:02:03;;;;;;;0.00;0.00;;;;;;;;;;1729004;28;20216;-56
2023/06/14 02:02:55;;;;;;;0.00;0.00;;;;;;;;;;1730864;28;20200;-60
2023/06/14 02:03:46;;;;;;;0.00;0.00;;;;;;;;;;1730578;28;20220;-60
2023/06/14 02:04:37;;;;;;;0.00;0.00;;;;;;;;;;1730444;28;20207;-59
2023/06/14 02:05:30;;;;;;;0.00;0.00;;;;;;;;;;1729905;28;20199;-59
2023/06/14 02:06:21;;;;;;;0.00;0.00;;;;;;;;;;1729729;28;20208;-60
2023/06/14 02:07:12;;;;;;;0.00;0.00;;;;;;;;;;1728278;28;20239;-58
2023/06/14 02:08:04;;;;;;;0.00;0.00;;;;;;;;;;1728935;28;20212;-60
2023/06/14 02:08:56;;;;;;;0.00;0.00;;;;;;;;;;1728884;28;20310;-60
2023/06/14 02:09:48;;;;;;;0.00;0.00;;;;;;;;;;1729260;28;20226;-59
2023/06/14 02:10:40;;;;;;;0.00;0.00;;;;;;;;;;1730138;28;20227;-60
2023/06/14 02:11:31;;;;;;;0.00;0.00;;;;;;;;;;1729442;28;20204;-60
2023/06/14 02:12:23;;;;;;;0.00;0.00;;;;;;;;;;1729467;28;20203;-60
2023/06/14 02:13:14;;;;;;;0.00;0.00;;;;;;;;;;1729821;28;20216;-60
2023/06/14 02:14:07;;;;;;;0.00;0.00;;;;;;;;;;1730885;28;20262;-60
2023/06/14 02:14:58;;;;;;;0.00;0.00;;;;;;;;;;1727745;28;20415;-60
2023/06/14 02:15:54;;;;;;;0.00;0.00;;;;;;;;;;1729202;28;20219;-60
2023/06/14 02:16:48;;;;;;;0.00;0.00;;;;;;;;;;1727720;28;20551;-60
2023/06/14 02:17:40;;;;;;;0.00;0.00;;;;;;;;;;1730377;28;20208;-60
2023/06/14 02:18:32;;;;;;;0.00;0.00;;;;;;;;;;1726488;28;20215;-60
2023/06/14 02:19:24;;;;;;;0.00;0.00;;;;;;;;;;1755307;22;20255;-72
2023/06/14 02:20:15;;;;;;;0.00;0.00;;;;;;;;;;1709273;28;20223;-71
2023/06/14 02:21:07;;;;;;;0.00;0.00;;;;;;;;;;1714229;28;20206;-70
2023/06/14 02:21:58;;;;;;;0.00;0.00;;;;;;;;;;1717059;28;20375;-70
2023/06/14 02:22:50;;;;;;;0.00;0.00;;;;;;;;;;1719238;28;20285;-71
2023/06/14 02:23:41;;;;;;;0.00;0.00;;;;;;;;;;1718889;28;20292;-71
2023/06/14 02:24:33;;;;;;;0.00;0.00;;;;;;;;;;1718867;28;20300;-70
2023/06/14 02:25:27;;;;;;;0.00;0.00;;;;;;;;;;1714057;28;20207;-71
2023/06/14 02:26:19;;;;;;;0.00;0.00;;;;;;;;;;1717344;28;20208;-70
2023/06/14 02:27:10;;;;;;;0.00;0.00;;;;;;;;;;1716539;28;20216;-72
2023/06/14 02:28:03;;;;;;;0.00;0.00;;;;;;;;;;1719201;28;20234;-72
2023/06/14 02:28:54;;;;;;;0.00;0.00;;;;;;;;;;1720742;28;20212;-72
2023/06/14 02:29:46;;;;;;;0.00;0.00;;;;;;;;;;1720258;28;20274;-72
2023/06/14 02:30:37;;;;;;;0.00;0.00;;;;;;;;;;1714769;28;20244;-71
2023/06/14 02:31:29;;;;;;;0.00;0.00;;;;;;;;;;1719555;28;20323;-69
2023/06/14 02:32:20;;;;;;;0.00;0.00;;;;;;;;;;1714907;28;20201;-71
2023/06/14 02:33:12;;;;;;;0.00;0.00;;;;;;;;;;1718247;28;20233;-71
2023/06/14 02:34:03;;;;;;;0.00;0.00;;;;;;;;;;1721838;28;20277;-72
2023/06/14 02:34:54;;;;;;;0.00;0.00;;;;;;;;;;1719774;28;20691;-72
2023/06/14 02:35:47;;;;;;;0.00;0.00;;;;;;;;;;1715926;28;20645;-72
2023/06/14 02:36:41;;;;;;;0.00;0.00;;;;;;;;;;1719050;28;20263;-71
2023/06/14 02:37:33;;;;;;;0.00;0.00;;;;;;;;;;1711946;28;20210;-71
2023/06/14 02:38:25;;;;;;;0.00;0.00;;;;;;;;;;1718239;28;20220;-71
2023/06/14 02:39:17;;;;;;;0.00;0.00;;;;;;;;;;1723891;28;20651;-71
2023/06/14 02:40:09;;;;;;;0.00;0.00;;;;;;;;;;1717306;28;20271;-70
2023/06/14 02:41:02;;;;;;;0.00;0.00;;;;;;;;;;1718390;28;20601;-72
2023/06/14 02:41:53;;;;;;;0.00;0.00;;;;;;;;;;1715790;28;20216;-69
2023/06/14 02:42:45;;;;;;;0.00;0.00;;;;;;;;;;1714691;28;20246;-70
2023/06/14 02:43:36;;;;;;;0.00;0.00;;;;;;;;;;1717669;28;20206;-70
2023/06/14 02:44:28;;;;;;;0.00;0.00;;;;;;;;;;1723972;28;20603;-69
2023/06/14 02:45:20;;;;;;;0.00;0.00;;;;;;;;;;1715636;28;20549;-68
2023/06/14 02:46:12;;;;;;;0.00;0.00;;;;;;;;;;1721193;28;20213;-69
2023/06/14 02:47:04;;;;;;;0.00;0.00;;;;;;;;;;1716646;28;20220;-69
2023/06/14 02:47:56;;;;;;;0.00;0.00;;;;;;;;;;1716140;28;20215;-69
2023/06/14 02:48:47;;;;;;;0.00;0.00;;;;;;;;;;1719338;28;20216;-69
2023/06/14 02:49:39;;;;;;;0.00;0.00;;;;;;;;;;1721180;28;20722;-69
2023/06/14 02:50:30;;;;;;;0.00;0.00;;;;;;;;;;1715643;28;20659;-69
2023/06/14 02:51:22;;;;;;;0.00;0.00;;;;;;;;;;1718554;28;20305;-68
2023/06/14 02:52:13;;;;;;;0.00;0.00;;;;;;;;;;1712801;28;20654;-68
2023/06/14 02:53:06;;;;;;;0.00;0.00;;;;;;;;;;1714859;28;20286;-68
2023/06/14 02:53:57;;;;;;;0.00;0.00;;;;;;;;;;1721150;28;20674;-69
2023/06/14 02:54:49;;;;;;;0.00;0.00;;;;;;;;;;1720420;28;20212;-69
2023/06/14 02:55:40;;;;;;;0.00;0.00;;;;;;;;;;1715067;28;20297;-69
2023/06/14 02:56:33;;;;;;;0.00;0.00;;;;;;;;;;1720234;28;20205;-68
2023/06/14 02:57:25;;;;;;;0.00;0.00;;;;;;;;;;1712057;28;20929;-68
2023/06/14 02:58:18;;;;;;;0.00;0.00;;;;;;;;;;1718585;28;20212;-69
2023/06/14 02:59:09;;;;;;;0.00;0.00;;;;;;;;;;1722713;28;20267;-69
2023/06/14 03:00:01;;;;;;;0.00;0.00;;;;;;;;;;1718667;28;20694;-69
2023/06/14 03:00:52;;;;;;;0.00;0.00;;;;;;;;;;1716052;28;20722;-69
2023/06/14 03:01:45;;;;;;;0.00;0.00;;;;;;;;;;1717955;28;20286;-68
2023/06/14 03:02:36;;;;;;;0.00;0.00;;;;;;;;;;1712507;28;20264;-69
2023/06/14 03:03:28;;;;;;;0.00;0.00;;;;;;;;;;1717578;28;20300;-69
2023/06/14 03:04:19;;;;;;;0.00;0.00;;;;;;;;;;1717877;28;20541;-69
2023/06/14 03:05:11;;;;;;;0.00;0.00;;;;;;;;;;1717112;28;20656;-68
2023/06/14 03:06:03;;;;;;;0.00;0.00;;;;;;;;;;1719564;28;20310;-68
2023/06/14 03:06:56;;;;;;;0.00;0.00;;;;;;;;;;1717970;28;20211;-69
2023/06/14 03:07:47;;;;;;;0.03;0.03;;;;;;;;;;1715050;28;20258;-68
2023/06/14 03:08:39;;;;;;;0.00;0.00;;;;;;;;;;1718079;28;20203;-69
2023/06/14 03:09:30;;;;;;;0.00;0.00;;;;;;;;;;1723911;28;20204;-69
2023/06/14 03:10:22;;;;;;;0.00;0.00;;;;;;;;;;1715358;28;20230;-69
2023/06/14 03:11:14;;;;;;;0.00;0.00;;;;;;;;;;1716066;28;20214;-70
2023/06/14 03:12:09;;;;;;;0.00;0.00;;;;;;;;;;1715709;28;20238;-69
2023/06/14 03:13:01;;;;;;;0.00;0.00;;;;;;;;;;1715856;28;20236;-68
2023/06/14 03:13:53;;;;;;;0.00;0.00;;;;;;;;;;1715011;28;20709;-69
2023/06/14 03:14:46;;;;;;;0.00;0.00;;;;;;;;;;1717677;28;20633;-69
2023/06/14 03:15:41;;;;;;;0.00;0.00;;;;;;;;;;1715202;28;20264;-69
2023/06/14 03:16:32;;;;;;;0.00;0.00;;;;;;;;;;1719169;28;20210;-71
2023/06/14 03:17:24;;;;;;;0.00;0.00;;;;;;;;;;1713977;28;20430;-69
2023/06/14 03:18:15;;;;;;;0.00;0.00;;;;;;;;;;1716852;28;20210;-70
2023/06/14 03:19:06;;;;;;;0.00;0.00;;;;;;;;;;1721413;28;20282;-69
2023/06/14 03:19:58;;;;;;;0.00;0.00;;;;;;;;;;1717820;28;20230;-69
2023/06/14 03:20:51;;;;;;;0.00;0.00;;;;;;;;;;1713597;28;20243;-69
2023/06/14 03:21:44;;;;;;;0.00;0.00;;;;;;;;;;1716715;28;20218;-70
2023/06/14 03:22:35;;;;;;;0.00;0.00;;;;;;;;;;1719057;28;20569;-68
2023/06/14 03:23:27;;;;;;;0.00;0.00;;;;;;;;;;1718256;28;20638;-68
2023/06/14 03:24:18;;;;;;;0.00;0.00;;;;;;;;;;1718929;28;20223;-70
2023/06/14 03:25:10;;;;;;;0.00;0.00;;;;;;;;;;1716951;28;20205;-69
2023/06/14 03:26:01;;;;;;;0.00;0.00;;;;;;;;;;1719680;28;20232;-68
2023/06/14 03:26:53;;;;;;;0.00;0.00;;;;;;;;;;1718644;28;20205;-69
2023/06/14 03:27:46;;;;;;;0.00;0.00;;;;;;;;;;1715507;28;20628;-68
2023/06/14 03:28:37;;;;;;;0.00;0.00;;;;;;;;;;1717337;28;20233;-68
2023/06/14 03:29:29;;;;;;;0.00;0.00;;;;;;;;;;1720868;28;20229;-68
2023/06/14 03:30:20;;;;;;;0.00;0.00;;;;;;;;;;1717421;28;20247;-68
2023/06/14 03:31:12;;;;;;;0.00;0.00;;;;;;;;;;1718437;28;20303;-68
2023/06/14 03:32:04;;;;;;;0.00;0.00;;;;;;;;;;1718048;28;20212;-66
2023/06/14 03:32:55;;;;;;;0.00;0.00;;;;;;;;;;1718060;28;20241;-69
2023/06/14 03:33:47;;;;;;;0.00;0.00;;;;;;;;;;1720415;28;20210;-68
2023/06/14 03:34:38;;;;;;;0.00;0.00;;;;;;;;;;1723510;28;20202;-69
2023/06/14 03:35:29;;;;;;;0.00;0.00;;;;;;;;;;1713732;28;20292;-69
2023/06/14 03:36:22;;;;;;;0.00;0.00;;;;;;;;;;1714259;28;20210;-69
2023/06/14 03:37:13;;;;;;;0.00;0.00;;;;;;;;;;1717911;28;20224;-69
2023/06/14 03:38:05;;;;;;;0.00;0.00;;;;;;;;;;1719001;28;20235;-68
2023/06/14 03:38:56;;;;;;;0.00;0.00;;;;;;;;;;1717425;28;20219;-69
2023/06/14 03:39:48;;;;;;;0.00;0.00;;;;;;;;;;1717228;28;20233;-69
2023/06/14 03:40:39;;;;;;;0.00;0.00;;;;;;;;;;1718350;28;20308;-69
2023/06/14 03:41:31;;;;;;;0.00;0.00;;;;;;;;;;1721560;28;20253;-69
2023/06/14 03:42:22;;;;;;;0.00;0.00;;;;;;;;;;1715620;28;20738;-69
2023/06/14 03:43:15;;;;;;;0.00;0.00;;;;;;;;;;1717629;28;20211;-70
2023/06/14 03:44:06;;;;;;;0.00;0.00;;;;;;;;;;1722530;28;20210;-69
2023/06/14 03:44:58;;;;;;;0.00;0.00;;;;;;;;;;1719982;28;20211;-69
2023/06/14 03:45:49;;;;;;;0.00;0.00;;;;;;;;;;1717011;28;20293;-69
2023/06/14 03:46:41;;;;;;;0.00;0.00;;;;;;;;;;1720087;28;20658;-69
2023/06/14 03:47:33;;;;;;;0.00;0.00;;;;;;;;;;1712981;28;20219;-69
2023/06/14 03:48:25;;;;;;;0.00;0.00;;;;;;;;;;1718908;28;20293;-69
2023/06/14 03:49:17;;;;;;;0.00;0.00;;;;;;;;;;1723814;28;20225;-69
2023/06/14 03:50:09;;;;;;;0.00;0.00;;;;;;;;;;1719266;28;20732;-68
2023/06/14 03:51:00;;;;;;;0.00;0.00;;;;;;;;;;1716484;28;20232;-69
2023/06/14 03:51:52;;;;;;;0.00;0.00;;;;;;;;;;1718667;28;20208;-68
2023/06/14 03:52:43;;;;;;;0.00;0.00;;;;;;;;;;1720148;28;20235;-69
2023/06/14 03:53:35;;;;;;;0.00;0.00;;;;;;;;;;1717632;28;20629;-69
2023/06/14 03:54:27;;;;;;;0.00;0.00;;;;;;;;;;1725751;28;20216;-70
2023/06/14 03:55:19;;;;;;;0.00;0.00;;;;;;;;;;1716369;28;20613;-69
2023/06/14 03:56:10;;;;;;;0.00;0.00;;;;;;;;;;1721642;28;20205;-69
2023/06/14 03:57:02;;;;;;;0.00;0.00;;;;;;;;;;1717848;28;20208;-66
2023/06/14 03:57:53;;;;;;;0.00;0.00;;;;;;;;;;1716568;28;20723;-69
2023/06/14 03:58:46;;;;;;;0.00;0.00;;;;;;;;;;1719048;28;20202;-69
2023/06/14 03:59:37;;;;;;;0.00;0.00;;;;;;;;;;1723991;28;20205;-69
2023/06/14 04:00:29;;;;;;;0.00;0.00;;;;;;;;;;1714906;28;20234;-69
2023/06/14 04:01:21;;;;;;;0.00;0.00;;;;;;;;;;1719988;28;20296;-68
2023/06/14 04:02:15;;;;;;;0.00;0.00;;;;;;;;;;1717706;28;20297;-69
2023/06/14 04:03:06;;;;;;;0.00;0.00;;;;;;;;;;1717932;28;20210;-69
2023/06/14 04:03:58;;;;;;;0.00;0.00;;;;;;;;;;1721467;28;20231;-69
2023/06/14 04:04:49;;;;;;;0.00;0.00;;;;;;;;;;1720943;28;21049;-68
2023/06/14 04:05:42;;;;;;;0.00;0.00;;;;;;;;;;1716308;28;20280;-69
2023/06/14 04:06:33;;;;;;;0.00;0.00;;;;;;;;;;1719641;28;20218;-68
2023/06/14 04:07:28;;;;;;;0.00;0.00;;;;;;;;;;1718328;28;20570;-69
2023/06/14 04:08:19;;;;;;;0.00;0.00;;;;;;;;;;1719468;28;20300;-69
2023/06/14 04:09:11;;;;;;;0.00;0.00;;;;;;;;;;1717251;28;20238;-69
2023/06/14 04:10:02;;;;;;;0.00;0.00;;;;;;;;;;1718076;28;20320;-69
2023/06/14 04:10:54;;;;;;;0.00;0.00;;;;;;;;;;1716623;28;20235;-69
2023/06/14 04:11:45;;;;;;;0.00;0.00;;;;;;;;;;1720511;28;20209;-69
2023/06/14 04:12:37;;;;;;;0.00;0.00;;;;;;;;;;1718775;28;20261;-70
2023/06/14 04:13:28;;;;;;;0.00;0.00;;;;;;;;;;1718734;28;20260;-69
2023/06/14 04:14:21;;;;;;;0.00;0.00;;;;;;;;;;1716466;28;20217;-68
2023/06/14 04:15:13;;;;;;;0.00;0.00;;;;;;;;;;1716878;28;20206;-69
2023/06/14 04:16:05;;;;;;;0.10;0.10;;;;;;;;;;1719204;28;20216;-70
2023/06/14 04:16:57;;;;;;;0.00;0.00;;;;;;;;;;1717888;28;20301;-69
2023/06/14 04:17:49;;;;;;;0.00;0.00;;;;;;;;;;1715138;28;20694;-69
2023/06/14 04:18:40;;;;;;;0.00;0.00;;;;;;;;;;1716268;28;20340;-69
2023/06/14 04:19:31;;;;;;;0.00;0.00;;;;;;;;;;1724113;28;20250;-70
2023/06/14 04:20:24;;;;;;;0.00;0.00;;;;;;;;;;1716677;28;20621;-69
2023/06/14 04:21:16;;;;;;;0.00;0.00;;;;;;;;;;1717774;28;20204;-69
2023/06/14 04:22:07;;;;;;;0.00;0.00;;;;;;;;;;1717491;28;20216;-69
2023/06/14 04:23:01;;;;;;;0.00;0.00;;;;;;;;;;1719490;28;20211;-71
2023/06/14 04:23:52;;;;;;;0.00;0.00;;;;;;;;;;1717009;28;20219;-69
2023/06/14 04:24:46;;;;;;;0.00;0.00;;;;;;;;;;1717774;28;20782;-70
2023/06/14 04:25:37;;;;;;;0.00;0.00;;;;;;;;;;1713477;28;20205;-70
2023/06/14 04:26:29;;;;;;;0.00;0.00;;;;;;;;;;1717880;28;20227;-70
2023/06/14 04:27:21;;;;;;;0.00;0.00;;;;;;;;;;1714829;28;20221;-69
2023/06/14 04:28:14;;;;;;;0.00;0.00;;;;;;;;;;1717722;28;20296;-69
2023/06/14 04:29:05;;;;;;;0.00;0.00;;;;;;;;;;1721097;28;20799;-69
2023/06/14 04:29:59;;;;;;;0.00;0.00;;;;;;;;;;1720135;28;20595;-70
2023/06/14 04:30:50;;;;;;;0.00;0.00;;;;;;;;;;1718973;28;20240;-70
2023/06/14 04:31:42;;;;;;;0.00;0.00;;;;;;;;;;1719562;28;20736;-69
2023/06/14 04:32:38;;;;;;;0.00;0.00;;;;;;;;;;1717802;28;20648;-70
2023/06/14 04:33:31;;;;;;;0.00;0.00;;;;;;;;;;1717056;28;20719;-70
2023/06/14 04:34:23;;;;;;;0.00;0.00;;;;;;;;;;1724869;28;20953;-70
2023/06/14 04:35:15;;;;;;;0.00;0.00;;;;;;;;;;1715258;28;20648;-70
2023/06/14 04:36:07;;;;;;;0.00;0.00;;;;;;;;;;1715554;28;20221;-70
2023/06/14 04:37:01;;;;;;;0.00;0.00;;;;;;;;;;1717158;28;20204;-69
2023/06/14 04:37:53;;;;;;;0.00;0.00;;;;;;;;;;1715384;28;20231;-69
2023/06/14 04:38:46;;;;;;;0.00;0.00;;;;;;;;;;1717159;28;20589;-71
2023/06/14 04:39:37;;;;;;;0.00;0.00;;;;;;;;;;1722745;28;20291;-70
2023/06/14 04:40:29;;;;;;;0.00;0.00;;;;;;;;;;1714909;28;20236;-70
2023/06/14 04:41:22;;;;;;;0.00;0.00;;;;;;;;;;1717300;28;20644;-70
2023/06/14 04:42:15;;;;;;;0.00;0.00;;;;;;;;;;1714963;28;20217;-70
2023/06/14 04:43:07;;;;;;;0.00;0.00;;;;;;;;;;1714043;28;21383;-69
2023/06/14 04:44:01;;;;;;;0.00;0.00;;;;;;;;;;1720027;28;20208;-70
2023/06/14 04:44:55;;;;;;;0.00;0.00;;;;;;;;;;1720128;28;20264;-70
2023/06/14 04:45:49;;;;;;;0.00;0.00;;;;;;;;;;1715064;28;20292;-70
2023/06/14 04:46:46;;;;;;;0.00;0.00;;;;;;;;;;1719180;28;20328;-70
2023/06/14 04:47:38;;;;;;;0.00;0.00;;;;;;;;;;1711484;28;20229;-70
2023/06/14 04:48:31;;;;;;;0.00;0.00;;;;;;;;;;1717362;28;20209;-70
2023/06/14 04:49:23;;;;;;;0.00;0.00;;;;;;;;;;1724039;28;20615;-70
2023/06/14 04:50:14;;;;;;;0.00;0.00;;;;;;;;;;1717223;28;20216;-71
2023/06/14 04:51:06;;;;;;;0.00;0.00;;;;;;;;;;1718636;28;20255;-69
2023/06/14 04:51:59;;;;;;;0.00;0.00;;;;;;;;;;1717515;28;20208;-70
2023/06/14 04:52:51;;;;;;;0.00;0.00;;;;;;;;;;1719397;28;20219;-69
2023/06/14 04:53:43;;;;;;;0.00;0.00;;;;;;;;;;1715328;28;20210;-70
2023/06/14 04:54:36;;;;;;;0.00;0.00;;;;;;;;;;1717908;28;20201;-70
2023/06/14 04:55:27;;;;;;;0.00;0.00;;;;;;;;;;1713162;28;20264;-70
2023/06/14 04:56:19;;;;;;;0.00;0.00;;;;;;;;;;1721027;28;20204;-69
2023/06/14 04:57:13;;;;;;;0.00;0.00;;;;;;;;;;1714903;28;20674;-70
2023/06/14 04:58:05;;;;;;;0.00;0.00;;;;;;;;;;1715503;28;20598;-70
2023/06/14 04:58:56;;;;;;;0.00;0.00;;;;;;;;;;1716431;28;20209;-70
2023/06/14 04:59:48;;;;;;;0.00;0.00;;;;;;;;;;1717216;28;20312;-70
2023/06/14 05:00:39;;;;;;;0.00;0.00;;;;;;;;;;1715028;28;20238;-69
2023/06/14 05:01:33;;;;;;;0.00;0.00;;;;;;;;;;1717750;28;20201;-70
2023/06/14 05:02:25;;;;;;;0.00;0.00;;;;;;;;;;1717670;28;20275;-70
2023/06/14 05:03:18;;;;;;;0.00;0.00;;;;;;;;;;1717877;28;20217;-70
2023/06/14 05:04:09;;;;;;;0.00;0.00;;;;;;;;;;1721291;28;20275;-70
2023/06/14 05:05:01;;;;;;;0.00;0.00;;;;;;;;;;1719750;28;20264;-70
2023/06/14 05:05:53;;;;;;;0.00;0.00;;;;;;;;;;1719906;28;20716;-69
2023/06/14 05:06:45;;;;;;;0.00;0.00;;;;;;;;;;1717908;28;20210;-70
2023/06/14 05:07:36;;;;;;;0.00;0.00;;;;;;;;;;1717475;28;20498;-69
2023/06/14 05:08:29;;;;;;;0.00;0.00;;;;;;;;;;1717317;28;20210;-70
2023/06/14 05:09:20;;;;;;;0.00;0.00;;;;;;;;;;1723980;28;20675;-69
2023/06/14 05:10:12;;;;;;;0.00;0.00;;;;;;;;;;1717827;28;20205;-72
2023/06/14 05:11:03;;;;;;;0.00;0.00;;;;;;;;;;1717247;28;20725;-70
2023/06/14 05:11:55;;;;;;;0.00;0.00;;;;;;;;;;1717682;28;20604;-70
2023/06/14 05:12:47;;;;;;;0.00;0.00;;;;;;;;;;1713773;28;20217;-70